sensor_id;sensor_type;location;lat;lon;timestamp;P1;durP1;ratioP1;P2;durP2;ratioP2
68438;SDS011;55421;51.600;5.718;2023-05-10T00:01:34;9.90;;;7.70;;
68438;SDS011;55421;51.600;5.718;2023-05-10T00:04:01;8.50;;;7.20;;
68438;SDS011;55421;51.600;5.718;2023-05-10T00:06:27;8.40;;;7.30;;
68438;SDS011;55421;51.600;5.718;2023-05-10T00:08:54;9.00;;;7.30;;
68438;SDS011;55421;51.600;5.718;2023-05-10T00:11:20;10.10;;;7.50;;
68438;SDS011;55421;51.600;5.718;2023-05-10T00:13:47;9.50;;;7.20;;
68438;SDS011;55421;51.600;5.718;2023-05-10T00:16:13;8.80;;;6.90;;
68438;SDS011;55421;51.600;5.718;2023-05-10T00:18:40;8.90;;;7.10;;
68438;SDS011;55421;51.600;5.718;2023-05-10T00:21:06;8.00;;;6.80;;
68438;SDS011;55421;51.600;5.718;2023-05-10T00:23:33;8.30;;;7.00;;
68438;SDS011;55421;51.600;5.718;2023-05-10T00:25:59;8.80;;;7.20;;
68438;SDS011;55421;51.600;5.718;2023-05-10T00:28:27;10.10;;;7.10;;
68438;SDS011;55421;51.600;5.718;2023-05-10T00:30:55;8.70;;;7.10;;
68438;SDS011;55421;51.600;5.718;2023-05-10T00:33:22;10.50;;;7.10;;
68438;SDS011;55421;51.600;5.718;2023-05-10T00:35:48;10.60;;;7.50;;
68438;SDS011;55421;51.600;5.718;2023-05-10T00:38:15;11.80;;;7.50;;
68438;SDS011;55421;51.600;5.718;2023-05-10T00:40:41;11.70;;;8.60;;
68438;SDS011;55421;51.600;5.718;2023-05-10T00:43:08;12.90;;;8.10;;
68438;SDS011;55421;51.600;5.718;2023-05-10T00:45:37;14.30;;;9.20;;
68438;SDS011;55421;51.600;5.718;2023-05-10T00:48:06;15.50;;;9.70;;
68438;SDS011;55421;51.600;5.718;2023-05-10T00:50:33;13.30;;;9.80;;
68438;SDS011;55421;51.600;5.718;2023-05-10T00:53:00;15.50;;;10.00;;
68438;SDS011;55421;51.600;5.718;2023-05-10T00:55:28;13.10;;;9.40;;
68438;SDS011;55421;51.600;5.718;2023-05-10T00:57:56;13.40;;;8.90;;
68438;SDS011;55421;51.600;5.718;2023-05-10T01:00:23;17.20;;;9.80;;
68438;SDS011;55421;51.600;5.718;2023-05-10T01:02:49;18.60;;;10.10;;
68438;SDS011;55421;51.600;5.718;2023-05-10T01:05:16;13.20;;;9.30;;
68438;SDS011;55421;51.600;5.718;2023-05-10T01:07:42;14.70;;;10.20;;
68438;SDS011;55421;51.600;5.718;2023-05-10T01:10:09;16.60;;;11.10;;
68438;SDS011;55421;51.600;5.718;2023-05-10T01:12:39;18.90;;;11.10;;
68438;SDS011;55421;51.600;5.718;2023-05-10T01:15:08;20.50;;;11.80;;
68438;SDS011;55421;51.600;5.718;2023-05-10T01:17:38;16.60;;;11.60;;
68438;SDS011;55421;51.600;5.718;2023-05-10T01:23:10;21.20;;;11.60;;
68438;SDS011;55421;51.600;5.718;2023-05-10T01:26:15;20.70;;;12.00;;
68438;SDS011;55421;51.600;5.718;2023-05-10T01:29:09;21.50;;;12.10;;
68438;SDS011;55421;51.600;5.718;2023-05-10T01:32:00;19.90;;;13.00;;
68438;SDS011;55421;51.600;5.718;2023-05-10T01:34:35;20.10;;;12.80;;
68438;SDS011;55421;51.600;5.718;2023-05-10T01:37:29;20.40;;;13.50;;
68438;SDS011;55421;51.600;5.718;2023-05-10T01:40:42;24.20;;;14.00;;
68438;SDS011;55421;51.600;5.718;2023-05-10T01:46:35;20.90;;;13.60;;
68438;SDS011;55421;51.600;5.718;2023-05-10T01:49:16;22.60;;;14.00;;
68438;SDS011;55421;51.600;5.718;2023-05-10T01:51:53;23.10;;;15.10;;
68438;SDS011;55421;51.600;5.718;2023-05-10T01:54:24;27.40;;;15.70;;
68438;SDS011;55421;51.600;5.718;2023-05-10T01:57:00;25.00;;;15.60;;
68438;SDS011;55421;51.600;5.718;2023-05-10T01:59:34;25.70;;;15.60;;
68438;SDS011;55421;51.600;5.718;2023-05-10T02:02:04;24.30;;;14.80;;
68438;SDS011;55421;51.600;5.718;2023-05-10T02:04:34;28.60;;;16.80;;
68438;SDS011;55421;51.600;5.718;2023-05-10T02:07:05;26.90;;;16.00;;
68438;SDS011;55421;51.600;5.718;2023-05-10T02:09:34;32.30;;;18.00;;
68438;SDS011;55421;51.600;5.718;2023-05-10T02:12:04;34.30;;;18.90;;
68438;SDS011;55421;51.600;5.718;2023-05-10T02:14:35;33.50;;;19.60;;
68438;SDS011;55421;51.600;5.718;2023-05-10T02:17:05;42.20;;;21.40;;
68438;SDS011;55421;51.600;5.718;2023-05-10T02:19:36;41.80;;;22.60;;
68438;SDS011;55421;51.600;5.718;2023-05-10T02:22:05;44.40;;;21.50;;
68438;SDS011;55421;51.600;5.718;2023-05-10T02:24:34;44.40;;;22.90;;
68438;SDS011;55421;51.600;5.718;2023-05-10T02:27:04;46.00;;;23.70;;
68438;SDS011;55421;51.600;5.718;2023-05-10T02:29:33;45.40;;;23.30;;
68438;SDS011;55421;51.600;5.718;2023-05-10T02:32:01;46.80;;;23.40;;
68438;SDS011;55421;51.600;5.718;2023-05-10T02:34:29;47.80;;;23.10;;
68438;SDS011;55421;51.600;5.718;2023-05-10T02:36:57;47.70;;;26.20;;
68438;SDS011;55421;51.600;5.718;2023-05-10T02:39:27;51.00;;;25.70;;
68438;SDS011;55421;51.600;5.718;2023-05-10T02:41:56;49.30;;;24.60;;
68438;SDS011;55421;51.600;5.718;2023-05-10T02:44:26;51.80;;;25.90;;
68438;SDS011;55421;51.600;5.718;2023-05-10T02:46:58;53.10;;;26.30;;
68438;SDS011;55421;51.600;5.718;2023-05-10T02:49:26;54.90;;;26.80;;
68438;SDS011;55421;51.600;5.718;2023-05-10T02:52:00;51.20;;;26.00;;
68438;SDS011;55421;51.600;5.718;2023-05-10T02:54:32;51.60;;;26.50;;
68438;SDS011;55421;51.600;5.718;2023-05-10T02:57:04;51.40;;;26.40;;
68438;SDS011;55421;51.600;5.718;2023-05-10T02:59:32;50.50;;;25.90;;
68438;SDS011;55421;51.600;5.718;2023-05-10T03:01:59;48.20;;;25.30;;
68438;SDS011;55421;51.600;5.718;2023-05-10T03:04:26;49.40;;;25.50;;
68438;SDS011;55421;51.600;5.718;2023-05-10T03:06:53;44.90;;;25.00;;
68438;SDS011;55421;51.600;5.718;2023-05-10T03:09:19;45.80;;;24.90;;
68438;SDS011;55421;51.600;5.718;2023-05-10T03:11:50;51.60;;;26.00;;
68438;SDS011;55421;51.600;5.718;2023-05-10T03:17:39;48.90;;;25.90;;
68438;SDS011;55421;51.600;5.718;2023-05-10T03:20:24;45.50;;;25.90;;
68438;SDS011;55421;51.600;5.718;2023-05-10T03:23:01;46.90;;;25.50;;
68438;SDS011;55421;51.600;5.718;2023-05-10T03:25:33;47.40;;;25.90;;
68438;SDS011;55421;51.600;5.718;2023-05-10T03:28:01;45.90;;;25.00;;
68438;SDS011;55421;51.600;5.718;2023-05-10T03:30:31;50.10;;;26.50;;
68438;SDS011;55421;51.600;5.718;2023-05-10T03:33:04;48.70;;;26.70;;
68438;SDS011;55421;51.600;5.718;2023-05-10T03:35:32;51.90;;;26.90;;
68438;SDS011;55421;51.600;5.718;2023-05-10T03:37:59;48.40;;;26.30;;
68438;SDS011;55421;51.600;5.718;2023-05-10T03:40:26;46.40;;;25.90;;
68438;SDS011;55421;51.600;5.718;2023-05-10T03:42:55;47.60;;;26.30;;
68438;SDS011;55421;51.600;5.718;2023-05-10T03:45:21;49.20;;;27.20;;
68438;SDS011;55421;51.600;5.718;2023-05-10T03:47:48;52.20;;;26.90;;
68438;SDS011;55421;51.600;5.718;2023-05-10T03:50:14;47.90;;;26.70;;
68438;SDS011;55421;51.600;5.718;2023-05-10T03:52:41;50.40;;;27.70;;
68438;SDS011;55421;51.600;5.718;2023-05-10T03:55:07;51.80;;;28.10;;
68438;SDS011;55421;51.600;5.718;2023-05-10T03:57:34;48.70;;;27.20;;
68438;SDS011;55421;51.600;5.718;2023-05-10T04:00:02;46.90;;;26.00;;
68438;SDS011;55421;51.600;5.718;2023-05-10T04:02:29;57.90;;;28.30;;
68438;SDS011;55421;51.600;5.718;2023-05-10T04:04:56;51.00;;;26.70;;
68438;SDS011;55421;51.600;5.718;2023-05-10T04:07:23;51.50;;;27.20;;
68438;SDS011;55421;51.600;5.718;2023-05-10T04:09:50;50.80;;;27.80;;
68438;SDS011;55421;51.600;5.718;2023-05-10T04:12:16;52.90;;;27.10;;
68438;SDS011;55421;51.600;5.718;2023-05-10T04:14:43;50.10;;;27.20;;
68438;SDS011;55421;51.600;5.718;2023-05-10T04:17:09;49.20;;;27.40;;
68438;SDS011;55421;51.600;5.718;2023-05-10T04:19:36;46.30;;;26.10;;
68438;SDS011;55421;51.600;5.718;2023-05-10T04:22:03;46.30;;;25.60;;
68438;SDS011;55421;51.600;5.718;2023-05-10T04:24:30;48.20;;;26.90;;
68438;SDS011;55421;51.600;5.718;2023-05-10T04:26:56;46.30;;;25.90;;
68438;SDS011;55421;51.600;5.718;2023-05-10T04:29:23;44.60;;;25.90;;
68438;SDS011;55421;51.600;5.718;2023-05-10T04:31:50;48.30;;;26.00;;
68438;SDS011;55421;51.600;5.718;2023-05-10T04:34:17;49.20;;;26.40;;
68438;SDS011;55421;51.600;5.718;2023-05-10T04:36:43;47.50;;;25.90;;
68438;SDS011;55421;51.600;5.718;2023-05-10T04:39:10;48.00;;;26.00;;
68438;SDS011;55421;51.600;5.718;2023-05-10T04:41:37;47.90;;;26.30;;
68438;SDS011;55421;51.600;5.718;2023-05-10T04:44:04;46.60;;;25.70;;
68438;SDS011;55421;51.600;5.718;2023-05-10T04:46:31;51.80;;;26.80;;
68438;SDS011;55421;51.600;5.718;2023-05-10T04:48:58;49.40;;;25.40;;
68438;SDS011;55421;51.600;5.718;2023-05-10T04:51:26;44.70;;;24.90;;
68438;SDS011;55421;51.600;5.718;2023-05-10T04:53:53;40.70;;;23.80;;
68438;SDS011;55421;51.600;5.718;2023-05-10T04:56:19;43.60;;;23.40;;
68438;SDS011;55421;51.600;5.718;2023-05-10T04:58:46;41.40;;;22.50;;
68438;SDS011;55421;51.600;5.718;2023-05-10T05:01:12;41.10;;;22.70;;
68438;SDS011;55421;51.600;5.718;2023-05-10T05:03:39;40.10;;;21.90;;
68438;SDS011;55421;51.600;5.718;2023-05-10T05:06:05;41.10;;;21.40;;
68438;SDS011;55421;51.600;5.718;2023-05-10T05:08:32;42.70;;;21.70;;
68438;SDS011;55421;51.600;5.718;2023-05-10T05:10:59;40.20;;;20.10;;
68438;SDS011;55421;51.600;5.718;2023-05-10T05:13:25;32.00;;;18.50;;
68438;SDS011;55421;51.600;5.718;2023-05-10T05:15:52;39.20;;;20.00;;
68438;SDS011;55421;51.600;5.718;2023-05-10T05:18:19;33.40;;;17.30;;
68438;SDS011;55421;51.600;5.718;2023-05-10T05:20:46;35.90;;;18.90;;
68438;SDS011;55421;51.600;5.718;2023-05-10T05:23:12;31.00;;;17.10;;
68438;SDS011;55421;51.600;5.718;2023-05-10T05:25:39;36.90;;;17.90;;
68438;SDS011;55421;51.600;5.718;2023-05-10T05:28:05;33.70;;;17.50;;
68438;SDS011;55421;51.600;5.718;2023-05-10T05:30:32;36.70;;;18.90;;
68438;SDS011;55421;51.600;5.718;2023-05-10T05:32:58;39.40;;;18.50;;
68438;SDS011;55421;51.600;5.718;2023-05-10T05:35:25;31.00;;;17.90;;
68438;SDS011;55421;51.600;5.718;2023-05-10T05:37:51;33.10;;;17.70;;
68438;SDS011;55421;51.600;5.718;2023-05-10T05:40:18;34.50;;;17.80;;
68438;SDS011;55421;51.600;5.718;2023-05-10T05:42:44;30.60;;;17.00;;
68438;SDS011;55421;51.600;5.718;2023-05-10T05:45:11;32.40;;;19.20;;
68438;SDS011;55421;51.600;5.718;2023-05-10T05:47:39;32.70;;;17.90;;
68438;SDS011;55421;51.600;5.718;2023-05-10T05:50:06;34.00;;;18.10;;
68438;SDS011;55421;51.600;5.718;2023-05-10T05:52:33;32.90;;;18.60;;
68438;SDS011;55421;51.600;5.718;2023-05-10T05:54:59;28.80;;;17.20;;
68438;SDS011;55421;51.600;5.718;2023-05-10T05:57:26;31.50;;;17.90;;
68438;SDS011;55421;51.600;5.718;2023-05-10T05:59:52;27.80;;;17.00;;
68438;SDS011;55421;51.600;5.718;2023-05-10T06:02:19;33.10;;;17.90;;
68438;SDS011;55421;51.600;5.718;2023-05-10T06:04:45;34.50;;;19.00;;
68438;SDS011;55421;51.600;5.718;2023-05-10T06:07:12;31.90;;;18.80;;
68438;SDS011;55421;51.600;5.718;2023-05-10T06:09:39;31.80;;;17.50;;
68438;SDS011;55421;51.600;5.718;2023-05-10T06:12:05;31.50;;;18.60;;
68438;SDS011;55421;51.600;5.718;2023-05-10T06:14:32;30.90;;;18.10;;
68438;SDS011;55421;51.600;5.718;2023-05-10T06:16:58;32.90;;;18.10;;
68438;SDS011;55421;51.600;5.718;2023-05-10T06:19:26;31.60;;;18.40;;
68438;SDS011;55421;51.600;5.718;2023-05-10T06:21:53;37.20;;;18.10;;
68438;SDS011;55421;51.600;5.718;2023-05-10T06:24:19;33.30;;;18.00;;
68438;SDS011;55421;51.600;5.718;2023-05-10T06:26:47;31.30;;;18.60;;
68438;SDS011;55421;51.600;5.718;2023-05-10T06:29:16;29.70;;;18.00;;
68438;SDS011;55421;51.600;5.718;2023-05-10T06:31:42;31.90;;;17.60;;
68438;SDS011;55421;51.600;5.718;2023-05-10T06:34:09;30.40;;;17.50;;
68438;SDS011;55421;51.600;5.718;2023-05-10T06:36:35;26.80;;;16.00;;
68438;SDS011;55421;51.600;5.718;2023-05-10T06:39:02;27.80;;;16.80;;
68438;SDS011;55421;51.600;5.718;2023-05-10T06:41:29;29.40;;;17.30;;
68438;SDS011;55421;51.600;5.718;2023-05-10T06:43:55;25.80;;;16.60;;
68438;SDS011;55421;51.600;5.718;2023-05-10T06:46:22;29.00;;;16.40;;
68438;SDS011;55421;51.600;5.718;2023-05-10T06:48:48;25.30;;;16.10;;
68438;SDS011;55421;51.600;5.718;2023-05-10T06:51:15;29.30;;;15.70;;
68438;SDS011;55421;51.600;5.718;2023-05-10T06:53:41;30.20;;;16.80;;
68438;SDS011;55421;51.600;5.718;2023-05-10T06:56:08;31.50;;;16.60;;
68438;SDS011;55421;51.600;5.718;2023-05-10T06:58:34;27.50;;;15.80;;
68438;SDS011;55421;51.600;5.718;2023-05-10T07:01:02;28.50;;;17.10;;
68438;SDS011;55421;51.600;5.718;2023-05-10T07:03:30;28.70;;;17.10;;
68438;SDS011;55421;51.600;5.718;2023-05-10T07:06:01;26.30;;;16.00;;
68438;SDS011;55421;51.600;5.718;2023-05-10T07:08:33;33.80;;;17.90;;
68438;SDS011;55421;51.600;5.718;2023-05-10T07:13:31;27.20;;;16.70;;
68438;SDS011;55421;51.600;5.718;2023-05-10T07:15:58;28.70;;;17.20;;
68438;SDS011;55421;51.600;5.718;2023-05-10T07:18:26;29.00;;;16.40;;
68438;SDS011;55421;51.600;5.718;2023-05-10T07:20:53;35.50;;;17.00;;
68438;SDS011;55421;51.600;5.718;2023-05-10T07:23:19;35.20;;;18.60;;
68438;SDS011;55421;51.600;5.718;2023-05-10T07:26:07;30.80;;;17.10;;
68438;SDS011;55421;51.600;5.718;2023-05-10T07:28:33;30.50;;;17.70;;
68438;SDS011;55421;51.600;5.718;2023-05-10T07:31:00;31.00;;;17.10;;
68438;SDS011;55421;51.600;5.718;2023-05-10T07:33:26;28.70;;;17.50;;
68438;SDS011;55421;51.600;5.718;2023-05-10T07:35:53;33.30;;;18.10;;
68438;SDS011;55421;51.600;5.718;2023-05-10T07:38:19;32.40;;;17.90;;
68438;SDS011;55421;51.600;5.718;2023-05-10T07:40:46;31.00;;;17.70;;
68438;SDS011;55421;51.600;5.718;2023-05-10T07:43:12;30.00;;;17.80;;
68438;SDS011;55421;51.600;5.718;2023-05-10T07:45:39;29.10;;;18.00;;
68438;SDS011;55421;51.600;5.718;2023-05-10T07:48:05;31.20;;;18.40;;
68438;SDS011;55421;51.600;5.718;2023-05-10T07:50:32;30.20;;;18.30;;
68438;SDS011;55421;51.600;5.718;2023-05-10T07:55:34;34.00;;;18.40;;
68438;SDS011;55421;51.600;5.718;2023-05-10T07:58:01;35.60;;;19.40;;
68438;SDS011;55421;51.600;5.718;2023-05-10T08:00:29;29.80;;;18.40;;
68438;SDS011;55421;51.600;5.718;2023-05-10T08:02:55;31.40;;;19.00;;
68438;SDS011;55421;51.600;5.718;2023-05-10T08:05:22;31.30;;;19.20;;
68438;SDS011;55421;51.600;5.718;2023-05-10T08:07:49;30.50;;;19.00;;
68438;SDS011;55421;51.600;5.718;2023-05-10T08:10:15;35.30;;;19.00;;
68438;SDS011;55421;51.600;5.718;2023-05-10T08:12:43;32.90;;;19.40;;
68438;SDS011;55421;51.600;5.718;2023-05-10T08:15:10;33.60;;;18.60;;
68438;SDS011;55421;51.600;5.718;2023-05-10T08:17:36;32.20;;;18.60;;
68438;SDS011;55421;51.600;5.718;2023-05-10T08:20:03;32.50;;;18.40;;
68438;SDS011;55421;51.600;5.718;2023-05-10T08:22:30;28.40;;;17.60;;
68438;SDS011;55421;51.600;5.718;2023-05-10T08:24:57;35.70;;;18.60;;
68438;SDS011;55421;51.600;5.718;2023-05-10T08:27:23;31.00;;;18.70;;
68438;SDS011;55421;51.600;5.718;2023-05-10T08:29:50;32.00;;;18.60;;
68438;SDS011;55421;51.600;5.718;2023-05-10T08:32:17;29.50;;;18.30;;
68438;SDS011;55421;51.600;5.718;2023-05-10T08:34:43;31.60;;;18.70;;
68438;SDS011;55421;51.600;5.718;2023-05-10T08:37:10;30.80;;;18.70;;
68438;SDS011;55421;51.600;5.718;2023-05-10T08:39:39;30.40;;;18.90;;
68438;SDS011;55421;51.600;5.718;2023-05-10T08:42:06;30.00;;;18.90;;
68438;SDS011;55421;51.600;5.718;2023-05-10T08:44:35;31.00;;;18.90;;
68438;SDS011;55421;51.600;5.718;2023-05-10T08:47:05;32.90;;;20.00;;
68438;SDS011;55421;51.600;5.718;2023-05-10T08:49:35;32.20;;;19.30;;
68438;SDS011;55421;51.600;5.718;2023-05-10T08:52:04;32.00;;;16.40;;
68438;SDS011;55421;51.600;5.718;2023-05-10T08:54:33;28.30;;;16.90;;
68438;SDS011;55421;51.600;5.718;2023-05-10T08:57:00;25.60;;;15.30;;
68438;SDS011;55421;51.600;5.718;2023-05-10T08:59:27;20.20;;;14.40;;
68438;SDS011;55421;51.600;5.718;2023-05-10T09:01:57;22.70;;;14.90;;
68438;SDS011;55421;51.600;5.718;2023-05-10T09:04:25;22.30;;;14.30;;
68438;SDS011;55421;51.600;5.718;2023-05-10T09:06:52;22.00;;;13.90;;
68438;SDS011;55421;51.600;5.718;2023-05-10T09:09:19;20.00;;;13.30;;
68438;SDS011;55421;51.600;5.718;2023-05-10T09:11:47;17.20;;;13.60;;
68438;SDS011;55421;51.600;5.718;2023-05-10T09:14:14;19.60;;;13.40;;
68438;SDS011;55421;51.600;5.718;2023-05-10T09:16:42;19.60;;;12.90;;
68438;SDS011;55421;51.600;5.718;2023-05-10T09:19:09;21.90;;;13.70;;
68438;SDS011;55421;51.600;5.718;2023-05-10T09:21:36;19.50;;;14.30;;
68438;SDS011;55421;51.600;5.718;2023-05-10T09:24:05;18.40;;;12.80;;
68438;SDS011;55421;51.600;5.718;2023-05-10T09:26:34;18.40;;;13.20;;
68438;SDS011;55421;51.600;5.718;2023-05-10T09:29:02;18.70;;;12.70;;
68438;SDS011;55421;51.600;5.718;2023-05-10T09:31:49;17.00;;;12.00;;
68438;SDS011;55421;51.600;5.718;2023-05-10T09:34:19;18.20;;;11.30;;
68438;SDS011;55421;51.600;5.718;2023-05-10T09:36:51;17.70;;;12.70;;
68438;SDS011;55421;51.600;5.718;2023-05-10T09:39:19;17.50;;;12.60;;
68438;SDS011;55421;51.600;5.718;2023-05-10T09:41:46;17.60;;;10.70;;
68438;SDS011;55421;51.600;5.718;2023-05-10T09:44:16;16.60;;;10.90;;
68438;SDS011;55421;51.600;5.718;2023-05-10T09:46:49;14.10;;;11.00;;
68438;SDS011;55421;51.600;5.718;2023-05-10T09:49:16;15.70;;;11.00;;
68438;SDS011;55421;51.600;5.718;2023-05-10T09:51:43;13.20;;;9.90;;
68438;SDS011;55421;51.600;5.718;2023-05-10T09:54:10;13.20;;;9.40;;
68438;SDS011;55421;51.600;5.718;2023-05-10T09:56:38;12.80;;;9.80;;
68438;SDS011;55421;51.600;5.718;2023-05-10T09:59:09;15.40;;;10.50;;
68438;SDS011;55421;51.600;5.718;2023-05-10T10:01:37;14.00;;;9.40;;
68438;SDS011;55421;51.600;5.718;2023-05-10T10:04:05;14.50;;;9.50;;
68438;SDS011;55421;51.600;5.718;2023-05-10T10:06:38;13.10;;;9.30;;
68438;SDS011;55421;51.600;5.718;2023-05-10T10:09:06;12.50;;;9.20;;
68438;SDS011;55421;51.600;5.718;2023-05-10T10:11:35;14.40;;;9.30;;
68438;SDS011;55421;51.600;5.718;2023-05-10T10:14:02;14.50;;;9.20;;
68438;SDS011;55421;51.600;5.718;2023-05-10T10:16:29;14.20;;;9.60;;
68438;SDS011;55421;51.600;5.718;2023-05-10T10:18:57;12.00;;;9.10;;
68438;SDS011;55421;51.600;5.718;2023-05-10T10:21:24;14.30;;;8.60;;
68438;SDS011;55421;51.600;5.718;2023-05-10T10:23:51;12.40;;;8.80;;
68438;SDS011;55421;51.600;5.718;2023-05-10T10:26:18;11.50;;;8.20;;
68438;SDS011;55421;51.600;5.718;2023-05-10T10:28:56;13.40;;;8.50;;
68438;SDS011;55421;51.600;5.718;2023-05-10T10:31:40;11.40;;;8.30;;
68438;SDS011;55421;51.600;5.718;2023-05-10T10:34:25;12.20;;;9.00;;
68438;SDS011;55421;51.600;5.718;2023-05-10T10:36:55;10.50;;;8.80;;
68438;SDS011;55421;51.600;5.718;2023-05-10T10:39:23;9.90;;;8.10;;
68438;SDS011;55421;51.600;5.718;2023-05-10T10:41:53;13.10;;;8.60;;
68438;SDS011;55421;51.600;5.718;2023-05-10T10:52:27;10.50;;;7.70;;
68438;SDS011;55421;51.600;5.718;2023-05-10T10:57:56;11.50;;;9.00;;
68438;SDS011;55421;51.600;5.718;2023-05-10T11:00:35;10.30;;;8.50;;
68438;SDS011;55421;51.600;5.718;2023-05-10T11:03:10;13.20;;;8.60;;
68438;SDS011;55421;51.600;5.718;2023-05-10T11:05:51;10.60;;;8.00;;
68438;SDS011;55421;51.600;5.718;2023-05-10T11:08:28;9.60;;;7.90;;
68438;SDS011;55421;51.600;5.718;2023-05-10T11:13:37;10.80;;;8.10;;
68438;SDS011;55421;51.600;5.718;2023-05-10T11:21:28;10.00;;;7.60;;
68438;SDS011;55421;51.600;5.718;2023-05-10T11:23:58;8.70;;;7.20;;
68438;SDS011;55421;51.600;5.718;2023-05-10T11:26:31;9.70;;;7.40;;
68438;SDS011;55421;51.600;5.718;2023-05-10T11:29:00;9.70;;;8.60;;
68438;SDS011;55421;51.600;5.718;2023-05-10T11:31:28;11.00;;;8.60;;
68438;SDS011;55421;51.600;5.718;2023-05-10T11:33:57;10.60;;;8.50;;
68438;SDS011;55421;51.600;5.718;2023-05-10T11:36:26;10.40;;;8.10;;
68438;SDS011;55421;51.600;5.718;2023-05-10T11:38:55;9.60;;;7.90;;
68438;SDS011;55421;51.600;5.718;2023-05-10T11:41:23;14.70;;;10.60;;
68438;SDS011;55421;51.600;5.718;2023-05-10T11:43:54;11.10;;;8.70;;
68438;SDS011;55421;51.600;5.718;2023-05-10T11:46:23;17.40;;;11.40;;
68438;SDS011;55421;51.600;5.718;2023-05-10T11:48:55;10.70;;;7.70;;
68438;SDS011;55421;51.600;5.718;2023-05-10T11:51:27;11.90;;;7.10;;
68438;SDS011;55421;51.600;5.718;2023-05-10T11:53:55;9.80;;;7.50;;
68438;SDS011;55421;51.600;5.718;2023-05-10T11:56:23;8.20;;;5.70;;
68438;SDS011;55421;51.600;5.718;2023-05-10T11:58:57;8.30;;;6.80;;
68438;SDS011;55421;51.600;5.718;2023-05-10T12:01:25;10.50;;;6.70;;
68438;SDS011;55421;51.600;5.718;2023-05-10T12:03:54;7.80;;;6.50;;
68438;SDS011;55421;51.600;5.718;2023-05-10T12:06:29;7.30;;;6.10;;
68438;SDS011;55421;51.600;5.718;2023-05-10T12:08:58;8.10;;;6.60;;
68438;SDS011;55421;51.600;5.718;2023-05-10T12:11:26;8.40;;;7.50;;
68438;SDS011;55421;51.600;5.718;2023-05-10T12:13:55;10.80;;;8.30;;
68438;SDS011;55421;51.600;5.718;2023-05-10T12:16:24;11.30;;;9.00;;
68438;SDS011;55421;51.600;5.718;2023-05-10T12:18:55;10.80;;;8.80;;
68438;SDS011;55421;51.600;5.718;2023-05-10T12:21:24;9.90;;;8.90;;
68438;SDS011;55421;51.600;5.718;2023-05-10T12:23:52;13.00;;;10.20;;
68438;SDS011;55421;51.600;5.718;2023-05-10T12:26:24;11.90;;;9.30;;
68438;SDS011;55421;51.600;5.718;2023-05-10T12:28:53;11.30;;;9.90;;
68438;SDS011;55421;51.600;5.718;2023-05-10T12:31:20;13.00;;;10.50;;
68438;SDS011;55421;51.600;5.718;2023-05-10T12:33:47;13.30;;;11.10;;
68438;SDS011;55421;51.600;5.718;2023-05-10T12:36:16;14.50;;;11.00;;
68438;SDS011;55421;51.600;5.718;2023-05-10T12:38:44;13.80;;;10.50;;
68438;SDS011;55421;51.600;5.718;2023-05-10T12:41:17;12.30;;;9.10;;
68438;SDS011;55421;51.600;5.718;2023-05-10T12:43:44;10.70;;;8.30;;
68438;SDS011;55421;51.600;5.718;2023-05-10T12:46:16;12.50;;;8.80;;
68438;SDS011;55421;51.600;5.718;2023-05-10T12:48:44;11.80;;;9.00;;
68438;SDS011;55421;51.600;5.718;2023-05-10T12:51:12;10.10;;;8.70;;
68438;SDS011;55421;51.600;5.718;2023-05-10T12:53:41;12.10;;;9.70;;
68438;SDS011;55421;51.600;5.718;2023-05-10T12:56:08;11.80;;;9.60;;
68438;SDS011;55421;51.600;5.718;2023-05-10T12:58:34;11.30;;;9.00;;
68438;SDS011;55421;51.600;5.718;2023-05-10T13:01:01;12.90;;;9.50;;
68438;SDS011;55421;51.600;5.718;2023-05-10T13:03:28;13.90;;;10.00;;
68438;SDS011;55421;51.600;5.718;2023-05-10T13:05:55;14.50;;;11.70;;
68438;SDS011;55421;51.600;5.718;2023-05-10T13:08:22;14.40;;;11.70;;
68438;SDS011;55421;51.600;5.718;2023-05-10T13:10:48;13.90;;;11.20;;
68438;SDS011;55421;51.600;5.718;2023-05-10T13:13:15;14.80;;;11.50;;
68438;SDS011;55421;51.600;5.718;2023-05-10T13:15:42;12.20;;;10.20;;
68438;SDS011;55421;51.600;5.718;2023-05-10T13:18:08;14.80;;;10.00;;
68438;SDS011;55421;51.600;5.718;2023-05-10T13:20:35;14.70;;;10.50;;
68438;SDS011;55421;51.600;5.718;2023-05-10T13:23:01;13.70;;;10.10;;
68438;SDS011;55421;51.600;5.718;2023-05-10T13:25:28;10.00;;;8.90;;
68438;SDS011;55421;51.600;5.718;2023-05-10T13:27:55;12.50;;;9.00;;
68438;SDS011;55421;51.600;5.718;2023-05-10T13:30:21;11.20;;;8.60;;
68438;SDS011;55421;51.600;5.718;2023-05-10T13:32:49;9.40;;;8.40;;
68438;SDS011;55421;51.600;5.718;2023-05-10T13:35:16;10.30;;;8.40;;
68438;SDS011;55421;51.600;5.718;2023-05-10T13:37:42;12.50;;;9.70;;
68438;SDS011;55421;51.600;5.718;2023-05-10T13:40:10;9.90;;;8.80;;
68438;SDS011;55421;51.600;5.718;2023-05-10T13:42:36;10.40;;;9.00;;
68438;SDS011;55421;51.600;5.718;2023-05-10T13:45:04;11.80;;;9.10;;
68438;SDS011;55421;51.600;5.718;2023-05-10T13:47:31;10.50;;;9.10;;
68438;SDS011;55421;51.600;5.718;2023-05-10T13:49:57;12.50;;;9.20;;
68438;SDS011;55421;51.600;5.718;2023-05-10T13:52:24;11.70;;;8.80;;
68438;SDS011;55421;51.600;5.718;2023-05-10T13:54:51;11.90;;;9.90;;
68438;SDS011;55421;51.600;5.718;2023-05-10T13:57:21;9.90;;;8.90;;
68438;SDS011;55421;51.600;5.718;2023-05-10T13:59:49;9.90;;;8.50;;
68438;SDS011;55421;51.600;5.718;2023-05-10T14:02:15;10.30;;;8.60;;
68438;SDS011;55421;51.600;5.718;2023-05-10T14:04:42;11.40;;;8.10;;
68438;SDS011;55421;51.600;5.718;2023-05-10T14:07:08;10.70;;;8.60;;
68438;SDS011;55421;51.600;5.718;2023-05-10T14:09:35;8.20;;;7.40;;
68438;SDS011;55421;51.600;5.718;2023-05-10T14:12:02;8.80;;;7.50;;
68438;SDS011;55421;51.600;5.718;2023-05-10T14:14:29;8.30;;;7.50;;
68438;SDS011;55421;51.600;5.718;2023-05-10T14:16:55;8.60;;;7.70;;
68438;SDS011;55421;51.600;5.718;2023-05-10T14:19:22;7.50;;;6.40;;
68438;SDS011;55421;51.600;5.718;2023-05-10T14:21:49;7.40;;;6.70;;
68438;SDS011;55421;51.600;5.718;2023-05-10T14:24:16;8.70;;;7.60;;
68438;SDS011;55421;51.600;5.718;2023-05-10T14:26:42;10.20;;;8.10;;
68438;SDS011;55421;51.600;5.718;2023-05-10T14:29:08;9.00;;;6.80;;
68438;SDS011;55421;51.600;5.718;2023-05-10T14:31:35;7.60;;;6.80;;
68438;SDS011;55421;51.600;5.718;2023-05-10T14:34:01;7.50;;;6.70;;
68438;SDS011;55421;51.600;5.718;2023-05-10T14:36:29;7.50;;;6.70;;
68438;SDS011;55421;51.600;5.718;2023-05-10T14:38:55;8.30;;;6.70;;
68438;SDS011;55421;51.600;5.718;2023-05-10T14:41:22;7.50;;;6.60;;
68438;SDS011;55421;51.600;5.718;2023-05-10T14:43:49;8.20;;;7.00;;
68438;SDS011;55421;51.600;5.718;2023-05-10T14:46:15;7.00;;;6.30;;
68438;SDS011;55421;51.600;5.718;2023-05-10T14:48:42;6.40;;;5.80;;
68438;SDS011;55421;51.600;5.718;2023-05-10T14:51:08;8.60;;;7.10;;
68438;SDS011;55421;51.600;5.718;2023-05-10T14:53:35;7.80;;;6.70;;
68438;SDS011;55421;51.600;5.718;2023-05-10T14:56:02;8.00;;;7.20;;
68438;SDS011;55421;51.600;5.718;2023-05-10T14:58:29;9.40;;;7.20;;
68438;SDS011;55421;51.600;5.718;2023-05-10T15:00:57;9.80;;;7.80;;
68438;SDS011;55421;51.600;5.718;2023-05-10T15:03:23;9.60;;;7.30;;
68438;SDS011;55421;51.600;5.718;2023-05-10T15:05:50;9.30;;;7.60;;
68438;SDS011;55421;51.600;5.718;2023-05-10T15:08:17;9.90;;;7.30;;
68438;SDS011;55421;51.600;5.718;2023-05-10T15:10:44;9.80;;;7.80;;